sensor_id;sensor_type;location;lat;lon;timestamp;P1;durP1;ratioP1;P2;durP2;ratioP2
76807;SDS011;65758;45.458;11.062;2023-08-30T00:02:12;3.50;;;0.60;;
76807;SDS011;65758;45.458;11.062;2023-08-30T00:04:39;1.00;;;0.50;;
76807;SDS011;65758;45.458;11.062;2023-08-30T00:07:05;1.90;;;0.50;;
76807;SDS011;65758;45.458;11.062;2023-08-30T00:09:32;1.00;;;0.60;;
76807;SDS011;65758;45.458;11.062;2023-08-30T00:11:59;1.40;;;0.70;;
76807;SDS011;65758;45.458;11.062;2023-08-30T00:14:26;1.20;;;0.50;;
76807;SDS011;65758;45.458;11.062;2023-08-30T00:16:53;1.30;;;0.50;;
76807;SDS011;65758;45.458;11.062;2023-08-30T00:19:20;0.30;;;0.30;;
76807;SDS011;65758;45.458;11.062;2023-08-30T00:21:47;0.80;;;0.50;;
76807;SDS011;65758;45.458;11.062;2023-08-30T00:24:13;0.50;;;0.50;;
76807;SDS011;65758;45.458;11.062;2023-08-30T00:26:41;2.20;;;0.40;;
76807;SDS011;65758;45.458;11.062;2023-08-30T00:29:08;0.50;;;0.10;;
76807;SDS011;65758;45.458;11.062;2023-08-30T00:31:34;0.30;;;0.30;;
76807;SDS011;65758;45.458;11.062;2023-08-30T00:34:01;0.60;;;0.50;;
76807;SDS011;65758;45.458;11.062;2023-08-30T00:36:28;1.70;;;0.70;;
76807;SDS011;65758;45.458;11.062;2023-08-30T00:38:55;0.80;;;0.40;;
76807;SDS011;65758;45.458;11.062;2023-08-30T00:41:22;1.10;;;0.60;;
76807;SDS011;65758;45.458;11.062;2023-08-30T00:43:49;0.70;;;0.50;;
76807;SDS011;65758;45.458;11.062;2023-08-30T00:46:15;2.60;;;0.50;;
76807;SDS011;65758;45.458;11.062;2023-08-30T00:48:44;1.50;;;0.40;;
76807;SDS011;65758;45.458;11.062;2023-08-30T00:51:11;1.80;;;0.60;;
76807;SDS011;65758;45.458;11.062;2023-08-30T00:53:39;0.70;;;0.40;;
76807;SDS011;65758;45.458;11.062;2023-08-30T00:56:06;1.60;;;0.60;;
76807;SDS011;65758;45.458;11.062;2023-08-30T00:58:33;0.70;;;0.30;;
76807;SDS011;65758;45.458;11.062;2023-08-30T01:01:00;0.40;;;0.40;;
76807;SDS011;65758;45.458;11.062;2023-08-30T01:03:28;6.90;;;0.90;;
76807;SDS011;65758;45.458;11.062;2023-08-30T01:05:55;1.90;;;0.60;;
76807;SDS011;65758;45.458;11.062;2023-08-30T01:08:21;1.30;;;0.60;;
76807;SDS011;65758;45.458;11.062;2023-08-30T01:13:53;0.60;;;0.60;;
76807;SDS011;65758;45.458;11.062;2023-08-30T01:16:25;0.80;;;0.40;;
76807;SDS011;65758;45.458;11.062;2023-08-30T01:18:55;2.10;;;0.60;;
76807;SDS011;65758;45.458;11.062;2023-08-30T01:24:32;1.20;;;0.50;;
76807;SDS011;65758;45.458;11.062;2023-08-30T01:27:11;2.00;;;0.60;;
76807;SDS011;65758;45.458;11.062;2023-08-30T01:29:40;0.90;;;0.80;;
76807;SDS011;65758;45.458;11.062;2023-08-30T01:34:39;2.20;;;0.60;;
76807;SDS011;65758;45.458;11.062;2023-08-30T01:37:07;1.30;;;0.70;;
76807;SDS011;65758;45.458;11.062;2023-08-30T01:39:36;2.70;;;0.70;;
76807;SDS011;65758;45.458;11.062;2023-08-30T01:42:04;0.70;;;0.70;;
76807;SDS011;65758;45.458;11.062;2023-08-30T01:44:32;1.60;;;0.80;;
76807;SDS011;65758;45.458;11.062;2023-08-30T01:47:00;1.30;;;1.00;;
76807;SDS011;65758;45.458;11.062;2023-08-30T01:49:29;5.00;;;1.00;;
76807;SDS011;65758;45.458;11.062;2023-08-30T01:51:58;3.90;;;0.70;;
76807;SDS011;65758;45.458;11.062;2023-08-30T01:54:25;2.70;;;0.90;;
76807;SDS011;65758;45.458;11.062;2023-08-30T01:56:54;4.90;;;0.80;;
76807;SDS011;65758;45.458;11.062;2023-08-30T01:59:21;2.80;;;0.90;;
76807;SDS011;65758;45.458;11.062;2023-08-30T02:01:48;2.00;;;1.00;;
76807;SDS011;65758;45.458;11.062;2023-08-30T02:04:15;1.80;;;0.70;;
76807;SDS011;65758;45.458;11.062;2023-08-30T02:09:37;1.60;;;0.60;;
76807;SDS011;65758;45.458;11.062;2023-08-30T02:12:10;0.90;;;0.60;;
76807;SDS011;65758;45.458;11.062;2023-08-30T02:14:44;1.80;;;0.70;;
76807;SDS011;65758;45.458;11.062;2023-08-30T02:17:17;1.80;;;0.70;;
76807;SDS011;65758;45.458;11.062;2023-08-30T02:19:44;2.00;;;0.80;;
76807;SDS011;65758;45.458;11.062;2023-08-30T02:22:16;2.30;;;0.90;;
76807;SDS011;65758;45.458;11.062;2023-08-30T02:24:42;0.70;;;0.70;;
76807;SDS011;65758;45.458;11.062;2023-08-30T02:27:09;1.70;;;0.80;;
76807;SDS011;65758;45.458;11.062;2023-08-30T02:29:36;5.80;;;1.00;;
76807;SDS011;65758;45.458;11.062;2023-08-30T02:32:04;2.10;;;1.00;;
76807;SDS011;65758;45.458;11.062;2023-08-30T02:34:32;1.30;;;1.00;;
76807;SDS011;65758;45.458;11.062;2023-08-30T02:36:59;2.20;;;1.00;;
76807;SDS011;65758;45.458;11.062;2023-08-30T02:39:26;2.10;;;1.00;;
76807;SDS011;65758;45.458;11.062;2023-08-30T02:41:53;2.30;;;0.80;;
76807;SDS011;65758;45.458;11.062;2023-08-30T02:44:20;1.90;;;1.00;;
76807;SDS011;65758;45.458;11.062;2023-08-30T02:46:47;3.50;;;0.90;;
76807;SDS011;65758;45.458;11.062;2023-08-30T02:49:14;1.30;;;1.10;;
76807;SDS011;65758;45.458;11.062;2023-08-30T02:51:40;5.00;;;1.20;;
76807;SDS011;65758;45.458;11.062;2023-08-30T02:54:07;0.80;;;0.60;;
76807;SDS011;65758;45.458;11.062;2023-08-30T02:56:34;2.80;;;1.30;;
76807;SDS011;65758;45.458;11.062;2023-08-30T02:59:01;2.40;;;1.00;;
76807;SDS011;65758;45.458;11.062;2023-08-30T03:01:28;3.80;;;1.10;;
76807;SDS011;65758;45.458;11.062;2023-08-30T03:03:56;1.10;;;0.70;;
76807;SDS011;65758;45.458;11.062;2023-08-30T03:06:23;1.30;;;1.00;;
76807;SDS011;65758;45.458;11.062;2023-08-30T03:08:50;4.40;;;0.90;;
76807;SDS011;65758;45.458;11.062;2023-08-30T03:11:17;1.80;;;1.00;;
76807;SDS011;65758;45.458;11.062;2023-08-30T03:13:48;4.70;;;1.00;;
76807;SDS011;65758;45.458;11.062;2023-08-30T03:16:16;3.80;;;0.90;;
76807;SDS011;65758;45.458;11.062;2023-08-30T03:18:43;2.70;;;0.90;;
76807;SDS011;65758;45.458;11.062;2023-08-30T03:21:10;1.90;;;0.70;;
76807;SDS011;65758;45.458;11.062;2023-08-30T03:23:38;2.10;;;0.80;;
76807;SDS011;65758;45.458;11.062;2023-08-30T03:28:36;0.90;;;0.90;;
76807;SDS011;65758;45.458;11.062;2023-08-30T03:31:11;1.20;;;0.70;;
76807;SDS011;65758;45.458;11.062;2023-08-30T03:33:39;2.00;;;0.60;;
76807;SDS011;65758;45.458;11.062;2023-08-30T03:36:11;4.00;;;1.00;;
76807;SDS011;65758;45.458;11.062;2023-08-30T03:38:39;3.20;;;0.70;;
76807;SDS011;65758;45.458;11.062;2023-08-30T03:41:06;3.00;;;0.70;;
76807;SDS011;65758;45.458;11.062;2023-08-30T03:43:33;1.00;;;0.60;;
76807;SDS011;65758;45.458;11.062;2023-08-30T03:46:01;0.90;;;0.60;;
76807;SDS011;65758;45.458;11.062;2023-08-30T03:48:29;3.10;;;0.90;;
76807;SDS011;65758;45.458;11.062;2023-08-30T03:50:57;1.40;;;0.50;;
76807;SDS011;65758;45.458;11.062;2023-08-30T03:53:25;2.60;;;0.70;;
76807;SDS011;65758;45.458;11.062;2023-08-30T03:55:52;0.90;;;0.40;;
76807;SDS011;65758;45.458;11.062;2023-08-30T03:58:19;3.50;;;0.80;;
76807;SDS011;65758;45.458;11.062;2023-08-30T04:00:46;2.00;;;0.60;;
76807;SDS011;65758;45.458;11.062;2023-08-30T04:03:14;3.50;;;0.80;;
76807;SDS011;65758;45.458;11.062;2023-08-30T04:05:42;1.00;;;0.50;;
76807;SDS011;65758;45.458;11.062;2023-08-30T04:08:09;4.10;;;0.70;;
76807;SDS011;65758;45.458;11.062;2023-08-30T04:10:38;3.80;;;0.90;;
76807;SDS011;65758;45.458;11.062;2023-08-30T04:13:05;0.50;;;0.50;;
76807;SDS011;65758;45.458;11.062;2023-08-30T04:15:35;1.20;;;0.50;;
76807;SDS011;65758;45.458;11.062;2023-08-30T04:18:03;1.50;;;0.80;;
76807;SDS011;65758;45.458;11.062;2023-08-30T04:20:30;3.50;;;1.10;;
76807;SDS011;65758;45.458;11.062;2023-08-30T04:22:59;0.60;;;0.30;;
76807;SDS011;65758;45.458;11.062;2023-08-30T04:25:30;1.30;;;0.60;;
76807;SDS011;65758;45.458;11.062;2023-08-30T04:27:58;1.80;;;0.80;;
76807;SDS011;65758;45.458;11.062;2023-08-30T04:30:25;1.50;;;0.50;;
76807;SDS011;65758;45.458;11.062;2023-08-30T04:32:52;2.10;;;0.60;;
76807;SDS011;65758;45.458;11.062;2023-08-30T04:35:19;0.80;;;0.60;;
76807;SDS011;65758;45.458;11.062;2023-08-30T04:37:45;1.80;;;0.80;;
76807;SDS011;65758;45.458;11.062;2023-08-30T04:40:13;3.20;;;0.90;;
76807;SDS011;65758;45.458;11.062;2023-08-30T04:42:40;4.20;;;0.80;;
76807;SDS011;65758;45.458;11.062;2023-08-30T04:45:07;1.90;;;0.50;;
76807;SDS011;65758;45.458;11.062;2023-08-30T04:47:36;1.40;;;0.60;;
76807;SDS011;65758;45.458;11.062;2023-08-30T04:50:04;2.00;;;0.70;;
76807;SDS011;65758;45.458;11.062;2023-08-30T04:52:32;1.40;;;0.50;;
76807;SDS011;65758;45.458;11.062;2023-08-30T04:54:59;0.70;;;0.50;;
76807;SDS011;65758;45.458;11.062;2023-08-30T04:57:27;1.00;;;0.70;;
76807;SDS011;65758;45.458;11.062;2023-08-30T04:59:54;1.00;;;0.80;;
76807;SDS011;65758;45.458;11.062;2023-08-30T05:02:21;0.50;;;0.50;;
76807;SDS011;65758;45.458;11.062;2023-08-30T05:04:58;0.80;;;0.50;;
76807;SDS011;65758;45.458;11.062;2023-08-30T05:07:25;2.70;;;0.50;;
76807;SDS011;65758;45.458;11.062;2023-08-30T05:09:52;0.80;;;0.50;;
76807;SDS011;65758;45.458;11.062;2023-08-30T05:12:19;2.30;;;0.40;;
76807;SDS011;65758;45.458;11.062;2023-08-30T05:14:46;0.40;;;0.40;;
76807;SDS011;65758;45.458;11.062;2023-08-30T05:17:13;2.60;;;0.60;;
76807;SDS011;65758;45.458;11.062;2023-08-30T05:19:39;1.50;;;0.40;;
76807;SDS011;65758;45.458;11.062;2023-08-30T05:22:06;1.10;;;0.60;;
76807;SDS011;65758;45.458;11.062;2023-08-30T05:24:34;2.50;;;0.50;;
76807;SDS011;65758;45.458;11.062;2023-08-30T05:27:01;2.40;;;0.30;;
76807;SDS011;65758;45.458;11.062;2023-08-30T05:29:36;0.50;;;0.50;;
76807;SDS011;65758;45.458;11.062;2023-08-30T05:32:03;1.50;;;0.70;;
76807;SDS011;65758;45.458;11.062;2023-08-30T05:35:06;8.30;;;1.40;;
76807;SDS011;65758;45.458;11.062;2023-08-30T05:37:53;0.60;;;0.40;;
76807;SDS011;65758;45.458;11.062;2023-08-30T05:40:32;0.50;;;0.40;;
76807;SDS011;65758;45.458;11.062;2023-08-30T05:42:59;0.40;;;0.40;;
76807;SDS011;65758;45.458;11.062;2023-08-30T05:45:26;1.50;;;0.40;;
76807;SDS011;65758;45.458;11.062;2023-08-30T05:47:53;0.30;;;0.30;;
76807;SDS011;65758;45.458;11.062;2023-08-30T05:50:20;1.30;;;0.70;;
76807;SDS011;65758;45.458;11.062;2023-08-30T05:52:47;3.00;;;0.70;;
76807;SDS011;65758;45.458;11.062;2023-08-30T05:55:14;0.50;;;0.50;;
76807;SDS011;65758;45.458;11.062;2023-08-30T05:57:41;0.70;;;0.70;;
76807;SDS011;65758;45.458;11.062;2023-08-30T06:00:08;1.50;;;0.70;;
76807;SDS011;65758;45.458;11.062;2023-08-30T06:02:39;0.80;;;0.70;;
76807;SDS011;65758;45.458;11.062;2023-08-30T06:05:06;1.10;;;0.50;;
76807;SDS011;65758;45.458;11.062;2023-08-30T06:07:34;2.50;;;0.40;;
76807;SDS011;65758;45.458;11.062;2023-08-30T06:10:01;1.90;;;0.70;;
76807;SDS011;65758;45.458;11.062;2023-08-30T06:12:28;2.20;;;0.70;;
76807;SDS011;65758;45.458;11.062;2023-08-30T06:14:55;2.60;;;0.80;;
76807;SDS011;65758;45.458;11.062;2023-08-30T06:17:21;0.70;;;0.70;;
76807;SDS011;65758;45.458;11.062;2023-08-30T06:19:48;2.30;;;0.70;;
76807;SDS011;65758;45.458;11.062;2023-08-30T06:22:15;0.80;;;0.60;;
76807;SDS011;65758;45.458;11.062;2023-08-30T06:24:42;0.60;;;0.60;;
76807;SDS011;65758;45.458;11.062;2023-08-30T06:27:09;4.50;;;1.30;;
76807;SDS011;65758;45.458;11.062;2023-08-30T06:29:36;2.80;;;0.90;;
76807;SDS011;65758;45.458;11.062;2023-08-30T06:32:03;0.80;;;0.80;;
76807;SDS011;65758;45.458;11.062;2023-08-30T06:34:30;4.90;;;1.20;;
76807;SDS011;65758;45.458;11.062;2023-08-30T06:36:57;0.90;;;0.80;;
76807;SDS011;65758;45.458;11.062;2023-08-30T06:39:24;1.70;;;0.80;;
76807;SDS011;65758;45.458;11.062;2023-08-30T06:41:51;1.40;;;0.80;;
76807;SDS011;65758;45.458;11.062;2023-08-30T06:44:19;0.60;;;0.60;;
76807;SDS011;65758;45.458;11.062;2023-08-30T06:46:46;3.10;;;1.10;;
76807;SDS011;65758;45.458;11.062;2023-08-30T06:49:13;1.90;;;0.60;;
76807;SDS011;65758;45.458;11.062;2023-08-30T06:51:40;1.10;;;0.60;;
76807;SDS011;65758;45.458;11.062;2023-08-30T06:54:06;0.90;;;0.70;;
76807;SDS011;65758;45.458;11.062;2023-08-30T06:56:33;2.30;;;0.80;;
76807;SDS011;65758;45.458;11.062;2023-08-30T06:59:00;3.10;;;1.10;;
76807;SDS011;65758;45.458;11.062;2023-08-30T07:01:27;2.20;;;0.80;;
76807;SDS011;65758;45.458;11.062;2023-08-30T07:03:54;1.10;;;0.80;;
76807;SDS011;65758;45.458;11.062;2023-08-30T07:06:21;2.30;;;0.80;;
76807;SDS011;65758;45.458;11.062;2023-08-30T07:08:48;1.10;;;1.00;;
76807;SDS011;65758;45.458;11.062;2023-08-30T07:11:14;1.60;;;0.90;;
76807;SDS011;65758;45.458;11.062;2023-08-30T07:16:25;4.90;;;0.90;;
76807;SDS011;65758;45.458;11.062;2023-08-30T07:18:52;4.60;;;1.00;;
76807;SDS011;65758;45.458;11.062;2023-08-30T07:21:19;5.80;;;0.80;;
76807;SDS011;65758;45.458;11.062;2023-08-30T07:23:46;2.00;;;0.70;;
76807;SDS011;65758;45.458;11.062;2023-08-30T07:26:13;1.60;;;0.80;;
76807;SDS011;65758;45.458;11.062;2023-08-30T07:28:39;1.30;;;1.20;;
76807;SDS011;65758;45.458;11.062;2023-08-30T07:31:06;2.30;;;0.80;;
76807;SDS011;65758;45.458;11.062;2023-08-30T07:33:33;5.60;;;1.30;;
76807;SDS011;65758;45.458;11.062;2023-08-30T07:36:00;2.40;;;0.90;;
76807;SDS011;65758;45.458;11.062;2023-08-30T07:38:27;3.70;;;0.90;;
76807;SDS011;65758;45.458;11.062;2023-08-30T07:40:54;1.60;;;0.90;;
76807;SDS011;65758;45.458;11.062;2023-08-30T07:43:20;3.00;;;1.00;;
76807;SDS011;65758;45.458;11.062;2023-08-30T07:45:47;4.50;;;1.00;;
76807;SDS011;65758;45.458;11.062;2023-08-30T07:48:14;6.20;;;0.80;;
76807;SDS011;65758;45.458;11.062;2023-08-30T07:50:42;4.90;;;1.20;;
76807;SDS011;65758;45.458;11.062;2023-08-30T07:53:08;1.40;;;0.50;;
76807;SDS011;65758;45.458;11.062;2023-08-30T07:55:37;3.70;;;0.90;;
76807;SDS011;65758;45.458;11.062;2023-08-30T07:58:03;2.30;;;0.80;;
76807;SDS011;65758;45.458;11.062;2023-08-30T08:00:30;3.30;;;0.70;;
76807;SDS011;65758;45.458;11.062;2023-08-30T08:02:57;3.70;;;0.90;;
76807;SDS011;65758;45.458;11.062;2023-08-30T08:05:24;5.10;;;1.10;;
76807;SDS011;65758;45.458;11.062;2023-08-30T08:07:51;1.90;;;0.90;;
76807;SDS011;65758;45.458;11.062;2023-08-30T08:10:20;2.00;;;0.90;;
76807;SDS011;65758;45.458;11.062;2023-08-30T08:12:47;1.80;;;0.70;;
76807;SDS011;65758;45.458;11.062;2023-08-30T08:15:13;1.30;;;0.90;;
76807;SDS011;65758;45.458;11.062;2023-08-30T08:17:40;1.60;;;0.80;;
76807;SDS011;65758;45.458;11.062;2023-08-30T08:20:07;2.00;;;0.70;;
76807;SDS011;65758;45.458;11.062;2023-08-30T08:22:35;1.10;;;0.60;;
76807;SDS011;65758;45.458;11.062;2023-08-30T08:25:02;2.60;;;0.40;;
76807;SDS011;65758;45.458;11.062;2023-08-30T08:27:29;0.50;;;0.50;;
76807;SDS011;65758;45.458;11.062;2023-08-30T08:29:56;1.40;;;0.80;;
76807;SDS011;65758;45.458;11.062;2023-08-30T08:32:23;0.60;;;0.60;;
76807;SDS011;65758;45.458;11.062;2023-08-30T08:34:50;0.60;;;0.60;;
76807;SDS011;65758;45.458;11.062;2023-08-30T08:37:17;1.50;;;1.10;;
76807;SDS011;65758;45.458;11.062;2023-08-30T08:39:44;1.00;;;0.70;;
76807;SDS011;65758;45.458;11.062;2023-08-30T08:42:13;1.30;;;0.70;;
76807;SDS011;65758;45.458;11.062;2023-08-30T08:44:42;1.70;;;1.00;;
76807;SDS011;65758;45.458;11.062;2023-08-30T08:47:11;1.10;;;0.80;;
76807;SDS011;65758;45.458;11.062;2023-08-30T08:49:38;1.50;;;0.90;;
76807;SDS011;65758;45.458;11.062;2023-08-30T08:52:06;0.90;;;0.70;;
76807;SDS011;65758;45.458;11.062;2023-08-30T08:54:49;1.00;;;0.60;;
76807;SDS011;65758;45.458;11.062;2023-08-30T08:57:17;1.80;;;0.80;;
76807;SDS011;65758;45.458;11.062;2023-08-30T08:59:45;1.60;;;0.80;;
76807;SDS011;65758;45.458;11.062;2023-08-30T09:02:13;0.50;;;0.50;;
76807;SDS011;65758;45.458;11.062;2023-08-30T09:04:41;0.80;;;0.80;;
76807;SDS011;65758;45.458;11.062;2023-08-30T09:07:08;0.80;;;0.80;;
76807;SDS011;65758;45.458;11.062;2023-08-30T09:09:35;0.70;;;0.70;;
76807;SDS011;65758;45.458;11.062;2023-08-30T09:12:03;0.70;;;0.70;;
76807;SDS011;65758;45.458;11.062;2023-08-30T09:14:30;0.90;;;0.80;;
76807;SDS011;65758;45.458;11.062;2023-08-30T09:16:57;2.60;;;1.20;;
76807;SDS011;65758;45.458;11.062;2023-08-30T09:19:27;2.30;;;1.20;;
76807;SDS011;65758;45.458;11.062;2023-08-30T09:21:58;1.90;;;1.00;;
76807;SDS011;65758;45.458;11.062;2023-08-30T09:24:36;1.20;;;1.10;;
76807;SDS011;65758;45.458;11.062;2023-08-30T09:27:05;2.20;;;1.00;;
76807;SDS011;65758;45.458;11.062;2023-08-30T09:29:32;1.20;;;1.10;;
76807;SDS011;65758;45.458;11.062;2023-08-30T09:32:00;3.80;;;1.40;;
76807;SDS011;65758;45.458;11.062;2023-08-30T09:34:27;1.00;;;0.90;;
76807;SDS011;65758;45.458;11.062;2023-08-30T09:36:54;2.30;;;1.20;;
76807;SDS011;65758;45.458;11.062;2023-08-30T09:39:22;1.60;;;1.10;;
76807;SDS011;65758;45.458;11.062;2023-08-30T09:41:49;2.10;;;1.50;;
76807;SDS011;65758;45.458;11.062;2023-08-30T09:44:20;3.40;;;1.50;;
76807;SDS011;65758;45.458;11.062;2023-08-30T09:46:51;1.30;;;1.20;;
76807;SDS011;65758;45.458;11.062;2023-08-30T09:49:20;3.90;;;1.40;;
76807;SDS011;65758;45.458;11.062;2023-08-30T09:51:49;2.60;;;1.30;;
76807;SDS011;65758;45.458;11.062;2023-08-30T09:54:20;2.10;;;1.30;;
76807;SDS011;65758;45.458;11.062;2023-08-30T09:56:52;2.80;;;1.90;;
76807;SDS011;65758;45.458;11.062;2023-08-30T09:59:23;1.70;;;1.40;;
76807;SDS011;65758;45.458;11.062;2023-08-30T10:01:50;1.50;;;1.40;;
76807;SDS011;65758;45.458;11.062;2023-08-30T10:04:20;2.40;;;1.80;;
76807;SDS011;65758;45.458;11.062;2023-08-30T10:06:51;2.20;;;1.50;;
76807;SDS011;65758;45.458;11.062;2023-08-30T10:09:21;2.60;;;1.50;;
76807;SDS011;65758;45.458;11.062;2023-08-30T10:11:50;3.30;;;1.60;;
76807;SDS011;65758;45.458;11.062;2023-08-30T10:14:21;1.80;;;1.50;;
76807;SDS011;65758;45.458;11.062;2023-08-30T10:16:49;3.90;;;1.40;;
76807;SDS011;65758;45.458;11.062;2023-08-30T10:19:23;3.00;;;1.70;;
76807;SDS011;65758;45.458;11.062;2023-08-30T10:24:39;2.10;;;1.90;;
76807;SDS011;65758;45.458;11.062;2023-08-30T10:27:29;2.50;;;1.90;;
76807;SDS011;65758;45.458;11.062;2023-08-30T10:29:58;4.10;;;1.90;;
76807;SDS011;65758;45.458;11.062;2023-08-30T10:32:27;4.00;;;2.20;;
76807;SDS011;65758;45.458;11.062;2023-08-30T10:34:54;3.90;;;1.90;;
76807;SDS011;65758;45.458;11.062;2023-08-30T10:37:25;2.60;;;1.90;;
76807;SDS011;65758;45.458;11.062;2023-08-30T10:39:53;3.50;;;2.00;;
76807;SDS011;65758;45.458;11.062;2023-08-30T10:42:29;4.30;;;2.40;;
76807;SDS011;65758;45.458;11.062;2023-08-30T10:47:39;4.70;;;2.40;;
76807;SDS011;65758;45.458;11.062;2023-08-30T10:50:08;3.20;;;2.10;;
76807;SDS011;65758;45.458;11.062;2023-08-30T10:52:37;2.60;;;2.10;;
76807;SDS011;65758;45.458;11.062;2023-08-30T10:55:07;2.50;;;2.20;;
76807;SDS011;65758;45.458;11.062;2023-08-30T10:57:35;3.80;;;2.30;;
76807;SDS011;65758;45.458;11.062;2023-08-30T11:02:43;2.30;;;2.10;;
76807;SDS011;65758;45.458;11.062;2023-08-30T11:05:16;3.00;;;2.60;;
76807;SDS011;65758;45.458;11.062;2023-08-30T11:07:44;3.30;;;2.50;;
76807;SDS011;65758;45.458;11.062;2023-08-30T11:10:13;3.00;;;2.10;;
76807;SDS011;65758;45.458;11.062;2023-08-30T11:12:41;4.90;;;2.70;;
76807;SDS011;65758;45.458;11.062;2023-08-30T11:15:09;3.60;;;2.80;;
76807;SDS011;65758;45.458;11.062;2023-08-30T11:17:37;4.00;;;2.90;;
76807;SDS011;65758;45.458;11.062;2023-08-30T11:22:35;3.00;;;2.40;;
76807;SDS011;65758;45.458;11.062;2023-08-30T11:25:04;4.20;;;3.00;;
76807;SDS011;65758;45.458;11.062;2023-08-30T11:27:32;4.60;;;3.00;;
76807;SDS011;65758;45.458;11.062;2023-08-30T11:30:02;4.90;;;2.90;;
76807;SDS011;65758;45.458;11.062;2023-08-30T11:32:35;5.00;;;2.50;;
76807;SDS011;65758;45.458;11.062;2023-08-30T11:35:04;4.40;;;3.10;;
76807;SDS011;65758;45.458;11.062;2023-08-30T11:37:31;4.00;;;2.60;;
76807;SDS011;65758;45.458;11.062;2023-08-30T11:39:59;3.10;;;2.50;;
76807;SDS011;65758;45.458;11.062;2023-08-30T11:42:27;4.60;;;2.90;;
76807;SDS011;65758;45.458;11.062;2023-08-30T11:44:54;3.50;;;2.50;;
76807;SDS011;65758;45.458;11.062;2023-08-30T11:47:24;3.10;;;2.70;;
76807;SDS011;65758;45.458;11.062;2023-08-30T11:49:54;4.80;;;2.70;;
76807;SDS011;65758;45.458;11.062;2023-08-30T11:52:23;2.70;;;2.40;;
76807;SDS011;65758;45.458;11.062;2023-08-30T11:54:51;3.40;;;2.70;;
76807;SDS011;65758;45.458;11.062;2023-08-30T11:57:19;3.60;;;2.80;;
76807;SDS011;65758;45.458;11.062;2023-08-30T11:59:47;2.20;;;2.10;;
76807;SDS011;65758;45.458;11.062;2023-08-30T12:02:16;4.70;;;3.30;;
76807;SDS011;65758;45.458;11.062;2023-08-30T12:04:44;2.90;;;2.60;;
76807;SDS011;65758;45.458;11.062;2023-08-30T12:07:23;3.50;;;2.90;;
76807;SDS011;65758;45.458;11.062;2023-08-30T12:09:51;3.00;;;2.50;;
76807;SDS011;65758;45.458;11.062;2023-08-30T12:12:18;3.60;;;2.50;;
76807;SDS011;65758;45.458;11.062;2023-08-30T12:14:54;3.20;;;2.40;;
76807;SDS011;65758;45.458;11.062;2023-08-30T12:17:22;4.00;;;3.20;;
76807;SDS011;65758;45.458;11.062;2023-08-30T12:19:56;3.10;;;2.80;;
76807;SDS011;65758;45.458;11.062;2023-08-30T12:22:23;3.80;;;2.80;;
76807;SDS011;65758;45.458;11.062;2023-08-30T12:24:51;4.00;;;2.50;;
76807;SDS011;65758;45.458;11.062;2023-08-30T12:27:18;3.20;;;2.40;;
76807;SDS011;65758;45.458;11.062;2023-08-30T12:29:45;2.70;;;2.50;;
76807;SDS011;65758;45.458;11.062;2023-08-30T12:32:11;3.00;;;2.70;;
76807;SDS011;65758;45.458;11.062;2023-08-30T12:34:38;3.10;;;2.50;;
76807;SDS011;65758;45.458;11.062;2023-08-30T12:37:05;3.70;;;2.90;;
76807;SDS011;65758;45.458;11.062;2023-08-30T12:39:32;2.30;;;2.10;;
76807;SDS011;65758;45.458;11.062;2023-08-30T12:41:59;2.50;;;2.10;;
76807;SDS011;65758;45.458;11.062;2023-08-30T12:44:26;2.20;;;2.00;;
76807;SDS011;65758;45.458;11.062;2023-08-30T12:46:53;2.70;;;1.80;;
76807;SDS011;65758;45.458;11.062;2023-08-30T12:49:20;4.30;;;2.30;;
76807;SDS011;65758;45.458;11.062;2023-08-30T12:51:47;3.20;;;2.30;;
76807;SDS011;65758;45.458;11.062;2023-08-30T12:54:14;2.80;;;2.10;;
76807;SDS011;65758;45.458;11.062;2023-08-30T12:56:41;2.30;;;2.00;;
76807;SDS011;65758;45.458;11.062;2023-08-30T12:59:09;2.90;;;2.20;;
76807;SDS011;65758;45.458;11.062;2023-08-30T13:01:35;3.40;;;2.50;;
76807;SDS011;65758;45.458;11.062;2023-08-30T13:04:06;2.90;;;2.70;;
76807;SDS011;65758;45.458;11.062;2023-08-30T13:06:34;5.70;;;2.50;;
76807;SDS011;65758;45.458;11.062;2023-08-30T13:09:01;2.60;;;2.30;;
76807;SDS011;65758;45.458;11.062;2023-08-30T13:11:28;2.60;;;2.30;;
76807;SDS011;65758;45.458;11.062;2023-08-30T13:13:55;4.70;;;2.30;;
76807;SDS011;65758;45.458;11.062;2023-08-30T13:16:24;2.20;;;2.00;;
76807;SDS011;65758;45.458;11.062;2023-08-30T13:18:52;2.20;;;2.00;;
76807;SDS011;65758;45.458;11.062;2023-08-30T13:21:18;1.70;;;1.60;;
76807;SDS011;65758;45.458;11.062;2023-08-30T13:23:56;2.10;;;1.90;;
76807;SDS011;65758;45.458;11.062;2023-08-30T13:26:23;2.30;;;2.10;;
76807;SDS011;65758;45.458;11.062;2023-08-30T13:28:50;1.60;;;1.50;;
76807;SDS011;65758;45.458;11.062;2023-08-30T13:31:16;1.30;;;1.10;;
76807;SDS011;65758;45.458;11.062;2023-08-30T13:33:43;1.80;;;1.60;;
76807;SDS011;65758;45.458;11.062;2023-08-30T13:36:10;3.00;;;1.80;;
76807;SDS011;65758;45.458;11.062;2023-08-30T13:38:37;2.40;;;2.30;;
76807;SDS011;65758;45.458;11.062;2023-08-30T13:41:05;2.10;;;1.90;;
76807;SDS011;65758;45.458;11.062;2023-08-30T13:43:32;3.10;;;1.80;;
76807;SDS011;65758;45.458;11.062;2023-08-30T13:45:59;1.90;;;1.70;;
76807;SDS011;65758;45.458;11.062;2023-08-30T13:48:27;2.10;;;1.70;;
76807;SDS011;65758;45.458;11.062;2023-08-30T13:50:54;2.90;;;1.70;;
76807;SDS011;65758;45.458;11.062;2023-08-30T13:53:21;3.20;;;1.50;;
76807;SDS011;65758;45.458;11.062;2023-08-30T13:55:48;1.80;;;1.50;;
76807;SDS011;65758;45.458;11.062;2023-08-30T13:58:15;1.80;;;1.70;;
76807;SDS011;65758;45.458;11.062;2023-08-30T14:00:43;4.30;;;2.00;;
76807;SDS011;65758;45.458;11.062;2023-08-30T14:03:11;3.70;;;1.80;;
76807;SDS011;65758;45.458;11.062;2023-08-30T14:05:39;2.40;;;1.60;;
76807;SDS011;65758;45.458;11.062;2023-08-30T14:08:09;1.50;;;1.40;;
76807;SDS011;65758;45.458;11.062;2023-08-30T14:10:36;2.50;;;1.60;;
76807;SDS011;65758;45.458;11.062;2023-08-30T14:13:03;1.50;;;1.40;;
76807;SDS011;65758;45.458;11.062;2023-08-30T14:15:31;1.90;;;1.50;;
76807;SDS011;65758;45.458;11.062;2023-08-30T14:17:58;1.60;;;1.40;;
76807;SDS011;65758;45.458;11.062;2023-08-30T14:20:27;2.70;;;1.40;;
76807;SDS011;65758;45.458;11.062;2023-08-30T14:22:54;1.40;;;1.20;;
76807;SDS011;65758;45.458;11.062;2023-08-30T14:25:21;2.30;;;1.30;;
76807;SDS011;65758;45.458;11.062;2023-08-30T14:27:48;3.00;;;1.20;;
76807;SDS011;65758;45.458;11.062;2023-08-30T14:30:15;1.70;;;1.30;;
76807;SDS011;65758;45.458;11.062;2023-08-30T14:32:42;1.20;;;1.10;;
76807;SDS011;65758;45.458;11.062;2023-08-30T14:35:09;2.90;;;1.50;;
76807;SDS011;65758;45.458;11.062;2023-08-30T14:37:37;3.40;;;1.90;;
76807;SDS011;65758;45.458;11.062;2023-08-30T14:40:06;2.10;;;1.80;;
76807;SDS011;65758;45.458;11.062;2023-08-30T14:42:34;3.10;;;2.20;;
76807;SDS011;65758;45.458;11.062;2023-08-30T14:45:01;3.20;;;2.00;;
76807;SDS011;65758;45.458;11.062;2023-08-30T14:47:29;3.50;;;2.10;;
76807;SDS011;65758;45.458;11.062;2023-08-30T14:49:58;3.70;;;2.00;;
76807;SDS011;65758;45.458;11.062;2023-08-30T14:52:25;3.20;;;2.00;;
76807;SDS011;65758;45.458;11.062;2023-08-30T14:54:52;2.70;;;1.90;;
76807;SDS011;65758;45.458;11.062;2023-08-30T14:57:19;2.20;;;1.70;;
76807;SDS011;65758;45.458;11.062;2023-08-30T14:59:46;2.20;;;2.00;;
76807;SDS011;65758;45.458;11.062;2023-08-30T15:02:14;2.20;;;2.10;;
76807;SDS011;65758;45.458;11.062;2023-08-30T15:04:41;2.10;;;1.80;;
76807;SDS011;65758;45.458;11.062;2023-08-30T15:07:07;4.50;;;2.10;;